Time;durP1;ratioP1;P1;durP2;ratioP2;P2;SDS_P1;SDS_P2;PMS_P1;PMS_P2;Temp;Humidity;BMP_temperature;BMP_pressure;BME280_temperature;BME280_humidity;BME280_pressure;Samples;Min_cycle;Max_cycle;Signal;HPM_P1;HPM_P2
2021/10/17 00:02:10;;;;;;;11.80;8.20;;;6.10;95.70;;;;;;5028095;28;20299;-88
2021/10/17 00:04:36;;;;;;;11.23;8.43;;;6.10;95.50;;;;;;5035782;28;20226;-89
2021/10/17 00:07:03;;;;;;;10.90;8.27;;;6.00;95.30;;;;;;5019519;28;20660;-88
2021/10/17 00:09:30;;;;;;;10.97;8.40;;;6.00;95.50;;;;;;5006686;28;20251;-89
2021/10/17 00:11:57;;;;;;;12.73;8.80;;;5.90;95.50;;;;;;5010582;28;20209;-89
2021/10/17 00:14:24;;;;;;;9.83;7.87;;;5.90;95.80;;;;;;5020287;28;20294;-88
2021/10/17 00:16:52;;;;;;;12.83;8.57;;;5.80;96.00;;;;;;5019982;28;20207;-90
2021/10/17 00:19:19;;;;;;;10.70;8.33;;;5.80;96.20;;;;;;5027806;28;20222;-89
2021/10/17 00:21:46;;;;;;;9.90;7.60;;;5.90;95.90;;;;;;5018617;28;20542;-89
2021/10/17 00:24:13;;;;;;;9.77;7.50;;;5.90;95.90;;;;;;5027666;28;20227;-89
2021/10/17 00:26:40;;;;;;;10.47;7.27;;;5.90;95.70;;;;;;5013072;28;20207;-90
2021/10/17 00:29:07;;;;;;;9.20;7.07;;;5.90;95.80;;;;;;5026619;28;20587;-89
2021/10/17 00:31:34;;;;;;;8.53;7.37;;;5.90;95.60;;;;;;4998273;28;20588;-88
2021/10/17 00:34:03;;;;;;;10.13;7.30;;;5.90;95.60;;;;;;5007239;28;20630;-89
2021/10/17 00:36:32;;;;;;;11.30;7.70;;;5.90;95.30;;;;;;5031825;28;20211;-88
2021/10/17 00:38:59;;;;;;;12.00;7.83;;;5.90;95.50;;;;;;5022488;28;20222;-88
2021/10/17 00:41:30;;;;;;;9.40;7.53;;;6.00;95.30;;;;;;5036897;28;20677;-87
2021/10/17 00:43:57;;;;;;;13.70;8.53;;;6.00;95.30;;;;;;5034493;28;20205;-89
2021/10/17 00:46:24;;;;;;;11.97;8.27;;;5.90;95.30;;;;;;5027737;28;20245;-89
2021/10/17 00:48:51;;;;;;;10.57;8.70;;;5.80;95.40;;;;;;5038401;28;20591;-89
2021/10/17 00:51:20;;;;;;;11.10;8.47;;;5.80;95.30;;;;;;5033279;28;20231;-89
2021/10/17 00:53:47;;;;;;;11.67;9.33;;;5.80;95.20;;;;;;5028980;28;20299;-89
2021/10/17 00:56:14;;;;;;;10.13;8.03;;;5.80;95.30;;;;;;5020966;28;20245;-90
2021/10/17 00:58:41;;;;;;;11.07;8.30;;;5.80;95.50;;;;;;5021850;28;20193;-89
2021/10/17 01:01:07;;;;;;;11.70;8.50;;;5.80;95.40;;;;;;5025675;28;20233;-89
2021/10/17 01:03:34;;;;;;;11.40;8.97;;;5.80;95.70;;;;;;5037259;28;20191;-88
2021/10/17 01:06:04;;;;;;;10.83;8.80;;;5.80;95.70;;;;;;5036479;28;20233;-88
2021/10/17 01:08:32;;;;;;;12.27;8.80;;;5.70;95.70;;;;;;5032506;28;20675;-89
2021/10/17 01:10:59;;;;;;;11.60;9.03;;;5.70;95.90;;;;;;5030622;28;20245;-89
2021/10/17 01:13:27;;;;;;;11.70;8.87;;;5.70;95.90;;;;;;5016073;23;20224;-89
2021/10/17 01:15:56;;;;;;;15.40;9.27;;;5.80;95.80;;;;;;4998609;28;20241;-90
2021/10/17 01:18:24;;;;;;;10.07;8.37;;;5.80;95.70;;;;;;5015542;28;20202;-89
2021/10/17 01:20:53;;;;;;;10.20;8.63;;;5.80;95.60;;;;;;4990330;28;20657;-88
2021/10/17 01:23:21;;;;;;;14.20;10.70;;;5.80;95.30;;;;;;4978069;28;20634;-89
2021/10/17 01:25:49;;;;;;;15.63;12.37;;;5.90;95.30;;;;;;4984922;28;20767;-89
2021/10/17 01:28:16;;;;;;;17.40;13.03;;;5.80;95.20;;;;;;4997798;28;20192;-89
2021/10/17 01:30:44;;;;;;;15.93;12.33;;;5.70;95.40;;;;;;5005458;28;20672;-89
2021/10/17 01:33:11;;;;;;;16.60;12.50;;;5.80;95.50;;;;;;4987587;28;20215;-90
2021/10/17 01:35:39;;;;;;;15.13;11.07;;;5.80;95.20;;;;;;5002524;28;20251;-89
2021/10/17 01:38:07;;;;;;;17.17;11.50;;;5.80;95.30;;;;;;5003152;28;20203;-89
2021/10/17 01:40:34;;;;;;;12.40;9.53;;;5.70;95.20;;;;;;4995959;28;20577;-90
2021/10/17 01:43:01;;;;;;;10.67;8.70;;;5.70;95.20;;;;;;4999223;28;20555;-88
2021/10/17 01:45:29;;;;;;;10.07;8.33;;;5.70;95.20;;;;;;4995324;28;20774;-89
2021/10/17 01:48:06;;;;;;;11.20;8.73;;;5.50;95.20;;;;;;4999192;28;20240;-91
2021/10/17 01:50:33;;;;;;;10.90;8.20;;;5.40;95.70;;;;;;4984276;28;20699;-89
2021/10/17 01:53:00;;;;;;;11.50;8.00;;;5.30;95.80;;;;;;4994588;28;20211;-89
2021/10/17 01:55:28;;;;;;;9.60;7.70;;;5.30;95.70;;;;;;5000808;28;20605;-88
2021/10/17 01:57:55;;;;;;;10.80;8.33;;;5.40;95.80;;;;;;4995945;28;20200;-91
2021/10/17 02:00:22;;;;;;;11.27;8.00;;;5.30;95.60;;;;;;4995168;28;20234;-89
2021/10/17 02:02:49;;;;;;;9.33;7.60;;;5.20;95.80;;;;;;4995557;28;20211;-90
2021/10/17 02:05:16;;;;;;;9.53;7.93;;;5.20;96.20;;;;;;4996605;28;20227;-89
2021/10/17 02:07:43;;;;;;;10.53;8.17;;;5.30;96.10;;;;;;4995122;28;20208;-90
2021/10/17 02:10:10;;;;;;;9.87;8.23;;;5.20;96.00;;;;;;4994318;28;20230;-89
2021/10/17 02:12:38;;;;;;;10.63;7.03;;;5.20;96.30;;;;;;5001565;28;20219;-89
2021/10/17 02:15:06;;;;;;;9.60;7.43;;;5.20;96.40;;;;;;4994943;28;20262;-88
2021/10/17 02:17:34;;;;;;;9.73;8.03;;;5.20;96.10;;;;;;4992160;28;20204;-89
2021/10/17 02:20:01;;;;;;;8.00;6.90;;;5.20;96.00;;;;;;4989842;28;20233;-90
2021/10/17 02:22:28;;;;;;;7.83;6.97;;;5.30;96.00;;;;;;5001253;28;20203;-90
2021/10/17 02:24:55;;;;;;;8.70;6.90;;;5.30;95.60;;;;;;4997667;28;20223;-90
2021/10/17 02:27:22;;;;;;;10.37;7.40;;;5.30;95.20;;;;;;4994167;28;20200;-88
2021/10/17 02:29:53;;;;;;;7.70;6.80;;;5.40;95.20;;;;;;4995950;28;20221;-90
2021/10/17 02:32:20;;;;;;;8.33;6.90;;;5.40;95.20;;;;;;4990665;28;20262;-90
2021/10/17 02:34:47;;;;;;;9.87;7.00;;;5.30;95.10;;;;;;4987068;28;20226;-88
2021/10/17 02:37:14;;;;;;;8.90;7.00;;;5.30;95.10;;;;;;4996204;28;20204;-90
2021/10/17 02:39:41;;;;;;;9.93;7.10;;;5.30;95.40;;;;;;4993201;28;20588;-90
2021/10/17 02:42:08;;;;;;;9.00;7.13;;;5.20;95.10;;;;;;4993395;28;20227;-91
2021/10/17 02:44:35;;;;;;;8.70;7.20;;;5.20;95.10;;;;;;4993600;28;20232;-90
2021/10/17 02:47:04;;;;;;;11.87;7.60;;;5.10;95.10;;;;;;4992237;28;20196;-89
2021/10/17 02:49:31;;;;;;;9.93;7.43;;;5.00;95.10;;;;;;4993327;28;20231;-91
2021/10/17 02:51:58;;;;;;;9.30;7.37;;;5.10;95.10;;;;;;4991628;28;20196;-89
2021/10/17 02:54:25;;;;;;;11.23;8.47;;;5.00;95.10;;;;;;4996795;28;20226;-89
2021/10/17 02:56:52;;;;;;;9.37;7.60;;;4.90;95.10;;;;;;4994970;28;20232;-89
2021/10/17 02:59:19;;;;;;;9.77;7.60;;;4.90;95.10;;;;;;5001147;28;20241;-89
2021/10/17 03:01:46;;;;;;;10.43;7.70;;;4.80;95.40;;;;;;4995375;28;20239;-89
2021/10/17 03:04:15;;;;;;;9.30;7.33;;;4.80;95.50;;;;;;5000843;28;20199;-89
2021/10/17 03:06:42;;;;;;;8.83;7.57;;;4.80;95.40;;;;;;4994961;28;20203;-89
2021/10/17 03:09:09;;;;;;;8.93;7.23;;;4.90;95.40;;;;;;4990599;28;20691;-89
2021/10/17 03:11:36;;;;;;;9.13;7.23;;;4.80;95.30;;;;;;4991918;28;20204;-91
2021/10/17 03:14:05;;;;;;;11.67;7.70;;;4.80;95.60;;;;;;4990026;28;20224;-89
2021/10/17 03:16:33;;;;;;;8.87;7.37;;;4.90;95.30;;;;;;4995996;28;20208;-89
2021/10/17 03:19:00;;;;;;;9.00;7.17;;;4.90;95.10;;;;;;5001087;28;20203;-92
2021/10/17 03:21:28;;;;;;;9.63;7.57;;;4.90;95.10;;;;;;4997448;28;20223;-90
2021/10/17 03:23:55;;;;;;;9.80;7.67;;;5.00;95.10;;;;;;4991496;28;20196;-89
2021/10/17 03:26:22;;;;;;;10.50;7.67;;;4.90;95.10;;;;;;4995173;28;20196;-87
2021/10/17 03:28:49;;;;;;;9.80;7.77;;;4.80;95.00;;;;;;4993441;28;20204;-90
2021/10/17 03:31:16;;;;;;;11.30;8.23;;;4.80;95.00;;;;;;4992616;28;20237;-87
2021/10/17 03:33:43;;;;;;;10.23;7.80;;;4.70;95.00;;;;;;4995955;28;20653;-87
2021/10/17 03:36:10;;;;;;;11.93;8.83;;;4.60;95.20;;;;;;4994939;28;20735;-89
2021/10/17 03:38:38;;;;;;;11.10;8.87;;;4.70;95.50;;;;;;4990503;28;20204;-89
2021/10/17 03:41:05;;;;;;;10.67;8.77;;;4.60;95.50;;;;;;5000624;28;20238;-88
2021/10/17 03:43:33;;;;;;;11.87;9.13;;;4.70;95.40;;;;;;4995857;28;20234;-90
2021/10/17 03:46:00;;;;;;;10.83;8.60;;;4.70;95.40;;;;;;4984427;28;20232;-89
2021/10/17 03:48:27;;;;;;;12.10;8.93;;;4.70;95.30;;;;;;4984126;28;20201;-89
2021/10/17 03:50:55;;;;;;;10.83;8.53;;;4.70;95.00;;;;;;4988088;28;20231;-89
2021/10/17 03:53:22;;;;;;;11.83;8.77;;;4.70;95.00;;;;;;5002189;28;20578;-88
2021/10/17 03:55:50;;;;;;;13.57;9.57;;;4.70;95.00;;;;;;4994885;28;20220;-88
2021/10/17 03:58:17;;;;;;;15.83;9.73;;;4.70;95.00;;;;;;4998362;28;20567;-89
2021/10/17 04:00:44;;;;;;;13.50;9.27;;;4.70;95.00;;;;;;5004595;28;20578;-88
2021/10/17 04:03:11;;;;;;;11.40;9.07;;;4.70;95.10;;;;;;4993312;28;20211;-92
2021/10/17 04:05:38;;;;;;;12.97;8.70;;;4.60;95.40;;;;;;5007741;28;20307;-88
2021/10/17 04:08:07;;;;;;;10.53;8.63;;;4.60;95.00;;;;;;4999104;28;20206;-89
2021/10/17 04:10:35;;;;;;;12.60;9.27;;;4.70;95.20;;;;;;5000062;28;20568;-90
2021/10/17 04:13:03;;;;;;;11.40;8.47;;;4.60;95.10;;;;;;4997968;28;20238;-91
2021/10/17 04:15:31;;;;;;;10.50;8.17;;;4.70;95.00;;;;;;5002287;28;20226;-88
2021/10/17 04:17:58;;;;;;;12.07;9.00;;;4.60;95.30;;;;;;5008823;28;20287;-88
2021/10/17 04:20:26;;;;;;;11.40;9.00;;;4.60;95.40;;;;;;4998757;28;20239;-88
2021/10/17 04:22:53;;;;;;;10.57;8.37;;;4.50;95.30;;;;;;4999319;28;20203;-88
2021/10/17 04:25:20;;;;;;;11.60;8.47;;;4.50;95.70;;;;;;4996378;28;20243;-87
2021/10/17 04:27:48;;;;;;;11.47;8.37;;;4.50;95.60;;;;;;4999320;28;20776;-87
2021/10/17 04:30:17;;;;;;;10.77;8.23;;;4.50;95.40;;;;;;4980440;28;20251;-89
2021/10/17 04:32:44;;;;;;;10.23;8.37;;;4.50;95.20;;;;;;4999118;28;20208;-88
2021/10/17 04:35:11;;;;;;;10.93;8.63;;;4.50;95.20;;;;;;4991154;28;20235;-89
2021/10/17 04:37:39;;;;;;;11.20;8.17;;;4.50;95.10;;;;;;4997543;28;20913;-89
2021/10/17 04:40:07;;;;;;;10.97;8.37;;;4.50;95.00;;;;;;5009548;28;20620;-88
2021/10/17 04:42:36;;;;;;;9.70;8.20;;;4.40;95.10;;;;;;4997984;28;20235;-88
2021/10/17 04:45:05;;;;;;;8.67;7.63;;;4.40;95.00;;;;;;4997781;28;20235;-89
2021/10/17 04:47:33;;;;;;;9.93;7.90;;;4.40;95.20;;;;;;5007369;28;20214;-88
2021/10/17 04:50:00;;;;;;;10.63;7.87;;;4.40;95.10;;;;;;5006998;28;20226;-89
2021/10/17 04:52:27;;;;;;;11.40;7.70;;;4.40;95.20;;;;;;5012813;28;20199;-89
2021/10/17 04:54:54;;;;;;;11.23;7.57;;;4.40;95.30;;;;;;4997933;28;20226;-88
2021/10/17 04:57:21;;;;;;;9.13;7.40;;;4.40;95.20;;;;;;4979125;28;20659;-88
2021/10/17 04:59:48;;;;;;;9.40;7.03;;;4.30;95.40;;;;;;4996670;28;20219;-90
2021/10/17 05:02:15;;;;;;;8.17;6.87;;;4.20;95.30;;;;;;4998764;28;20234;-88
2021/10/17 05:04:46;;;;;;;9.13;6.90;;;4.10;95.50;;;;;;4995439;28;20238;-89
2021/10/17 05:07:13;;;;;;;8.73;7.10;;;4.10;95.70;;;;;;4996323;28;20687;-88
2021/10/17 05:09:40;;;;;;;9.13;7.37;;;4.20;95.60;;;;;;4993050;28;20220;-87
2021/10/17 05:12:07;;;;;;;8.00;6.83;;;4.20;95.40;;;;;;4998358;28;20230;-87
2021/10/17 05:14:34;;;;;;;9.00;6.73;;;4.20;94.90;;;;;;4995231;28;20224;-87
2021/10/17 05:17:01;;;;;;;8.87;6.87;;;4.20;95.10;;;;;;4995995;28;20192;-87
2021/10/17 05:19:28;;;;;;;9.77;7.00;;;4.10;94.90;;;;;;4997192;28;20220;-87
2021/10/17 05:21:57;;;;;;;10.20;7.23;;;4.00;95.30;;;;;;4987294;28;20216;-89
2021/10/17 05:24:24;;;;;;;8.73;6.40;;;4.00;95.50;;;;;;4989424;28;20685;-88
2021/10/17 05:26:51;;;;;;;8.57;6.90;;;4.00;95.90;;;;;;4992192;28;20228;-88
2021/10/17 05:29:18;;;;;;;8.97;6.73;;;3.90;95.80;;;;;;4996906;28;20234;-88
2021/10/17 05:31:46;;;;;;;7.33;6.37;;;4.00;95.80;;;;;;4995194;28;20758;-89
2021/10/17 05:34:13;;;;;;;7.60;6.63;;;4.00;95.70;;;;;;4993078;28;20623;-89
2021/10/17 05:36:40;;;;;;;8.27;6.77;;;4.00;95.60;;;;;;4995176;28;20199;-90
2021/10/17 05:39:09;;;;;;;7.60;6.70;;;4.00;95.70;;;;;;4993322;28;20200;-88
2021/10/17 05:41:36;;;;;;;8.10;6.50;;;4.10;95.40;;;;;;4994956;28;20224;-86
2021/10/17 05:44:04;;;;;;;9.23;6.43;;;4.20;94.90;;;;;;5001410;28;20200;-88
2021/10/17 05:46:31;;;;;;;9.17;6.53;;;4.20;94.90;;;;;;5005281;28;20202;-92
2021/10/17 05:48:58;;;;;;;8.70;6.07;;;4.20;94.90;;;;;;5005065;28;20196;-87
2021/10/17 05:51:25;;;;;;;7.63;6.27;;;4.20;94.90;;;;;;5003888;28;20329;-90
2021/10/17 05:53:52;;;;;;;8.00;6.67;;;4.20;94.90;;;;;;5003209;28;20207;-88
2021/10/17 05:56:20;;;;;;;7.03;5.63;;;4.10;94.90;;;;;;5001910;28;20688;-88
2021/10/17 05:58:47;;;;;;;9.97;6.37;;;4.00;94.90;;;;;;5001728;28;20706;-90
2021/10/17 06:01:14;;;;;;;8.00;6.30;;;3.90;95.40;;;;;;4995305;28;20278;-88
2021/10/17 06:03:41;;;;;;;7.30;5.87;;;3.90;95.60;;;;;;4995495;28;20255;-86
2021/10/17 06:06:09;;;;;;;7.63;5.90;;;3.90;95.60;;;;;;4995338;28;20227;-89
2021/10/17 06:08:36;;;;;;;8.10;6.03;;;4.00;95.80;;;;;;4998858;28;20282;-89
2021/10/17 06:11:04;;;;;;;7.83;6.20;;;4.10;95.70;;;;;;5000506;28;20222;-88
2021/10/17 06:13:33;;;;;;;6.80;6.10;;;4.10;95.60;;;;;;4993549;28;20281;-88
2021/10/17 06:16:02;;;;;;;7.57;6.07;;;4.10;95.70;;;;;;4991045;28;20228;-90
2021/10/17 06:18:34;;;;;;;7.40;5.77;;;4.20;95.70;;;;;;4984252;28;20699;-88
2021/10/17 06:21:02;;;;;;;6.93;5.80;;;4.30;95.80;;;;;;4994523;28;20589;-89
2021/10/17 06:23:29;;;;;;;6.47;5.73;;;4.40;95.70;;;;;;4994947;28;20287;-89
2021/10/17 06:25:56;;;;;;;6.50;5.53;;;4.50;95.70;;;;;;4989944;28;20233;-89
2021/10/17 06:28:22;;;;;;;7.13;5.70;;;4.50;95.90;;;;;;4983621;28;20292;-88
2021/10/17 06:30:51;;;;;;;6.70;5.57;;;4.60;95.80;;;;;;4998035;28;20697;-89
2021/10/17 06:33:18;;;;;;;6.70;5.70;;;4.60;95.90;;;;;;4996756;28;20204;-90
2021/10/17 06:35:45;;;;;;;6.77;5.10;;;4.80;95.90;;;;;;4986560;28;20220;-88
2021/10/17 06:38:12;;;;;;;5.93;5.23;;;4.90;95.80;;;;;;4990109;28;20230;-86
2021/10/17 06:40:39;;;;;;;6.83;5.13;;;5.00;95.60;;;;;;4989477;28;20224;-88
2021/10/17 06:43:06;;;;;;;6.90;5.37;;;5.10;95.40;;;;;;4983661;28;20232;-89
2021/10/17 06:45:33;;;;;;;5.90;5.30;;;5.20;95.40;;;;;;4979191;28;20220;-87
2021/10/17 06:48:02;;;;;;;10.53;5.83;;;5.30;95.60;;;;;;4985396;28;20192;-87
2021/10/17 06:50:29;;;;;;;7.30;5.47;;;5.30;95.50;;;;;;4988809;28;20228;-91
2021/10/17 06:52:57;;;;;;;5.87;5.00;;;5.40;95.50;;;;;;4991926;28;20200;-85
2021/10/17 06:55:23;;;;;;;6.03;5.33;;;5.50;95.50;;;;;;4989208;28;20275;-87
2021/10/17 06:57:50;;;;;;;5.53;5.03;;;5.50;95.30;;;;;;4983728;28;20206;-86
2021/10/17 07:00:17;;;;;;;6.73;5.00;;;5.40;95.50;;;;;;4990450;28;20231;-90
2021/10/17 07:02:46;;;;;;;5.97;5.17;;;5.50;95.80;;;;;;4988789;28;20233;-88
2021/10/17 07:05:15;;;;;;;5.90;5.30;;;5.60;95.70;;;;;;4994289;28;20267;-89
2021/10/17 07:07:51;;;;;;;6.77;5.57;;;5.70;95.50;;;;;;4993667;28;20242;-89
2021/10/17 07:10:18;;;;;;;6.47;5.37;;;5.70;95.60;;;;;;4997295;28;20603;-89
2021/10/17 07:12:45;;;;;;;5.97;5.37;;;5.80;95.60;;;;;;4998088;28;20567;-92
2021/10/17 07:15:22;;;;;;;7.13;4.70;;;5.80;95.80;;;;;;4996409;28;20695;-89
2021/10/17 07:17:49;;;;;;;5.07;4.50;;;6.00;95.90;;;;;;4997065;28;20275;-90
2021/10/17 07:20:18;;;;;;;7.10;4.77;;;6.00;95.90;;;;;;4998188;28;20232;-91
2021/10/17 07:23:31;;;;;;;5.03;4.53;;;6.10;95.90;;;;;;4997445;28;20220;-91
2021/10/17 07:25:59;;;;;;;5.77;4.63;;;6.30;95.50;;;;;;4996588;28;20237;-91
2021/10/17 07:28:26;;;;;;;5.53;4.37;;;6.40;95.40;;;;;;4999427;28;20294;-88
2021/10/17 07:31:30;;;;;;;6.13;4.53;;;6.50;95.40;;;;;;5017421;28;20197;-91
2021/10/17 07:37:22;;;;;;;4.97;4.23;;;6.70;95.40;;;;;;4997840;28;20207;-92
2021/10/17 07:39:49;;;;;;;6.13;4.40;;;6.80;95.40;;;;;;4998349;28;20550;-88
2021/10/17 07:42:16;;;;;;;5.10;4.60;;;6.90;95.50;;;;;;4998893;28;20218;-90
2021/10/17 07:44:43;;;;;;;5.30;4.40;;;6.90;95.50;;;;;;4999404;28;20207;-90
2021/10/17 07:47:10;;;;;;;5.10;4.50;;;6.90;95.50;;;;;;4998773;28;20197;-90
2021/10/17 07:49:58;;;;;;;4.90;4.40;;;7.00;95.50;;;;;;4999197;28;20652;-90
2021/10/17 07:58:33;;;;;;;4.95;4.18;;;7.40;95.60;;;;;;4973875;28;20207;-94
2021/10/17 08:04:22;;;;;;;5.60;4.80;;;7.60;95.60;;;;;;5001234;28;20196;-91
2021/10/17 08:06:49;;;;;;;5.28;4.78;;;7.70;95.60;;;;;;4998427;28;20204;-91
2021/10/17 08:09:16;;;;;;;5.60;5.05;;;7.80;95.60;;;;;;4996696;28;20200;-89
2021/10/17 08:11:44;;;;;;;5.70;4.30;;;8.00;95.70;;;;;;4996503;28;20206;-91
2021/10/17 08:14:11;;;;;;;6.13;4.40;;;8.10;95.40;;;;;;5004446;28;20230;-91
2021/10/17 08:16:38;;;;;;;5.07;4.57;;;8.20;95.10;;;;;;4981436;28;20663;-91
2021/10/17 08:19:05;;;;;;;8.05;4.60;;;8.30;95.00;;;;;;4997360;28;20230;-92
2021/10/17 08:21:56;;;;;;;5.45;4.78;;;8.50;94.90;;;;;;4999872;28;20238;-92
2021/10/17 08:24:23;;;;;;;5.10;4.60;;;8.70;94.70;;;;;;4984420;28;20292;-92
2021/10/17 08:33:03;;;;;;;5.07;4.53;;;9.10;94.00;;;;;;4961785;29;20217;-91
2021/10/17 08:39:07;;;;;;;6.25;5.22;;;9.40;94.00;;;;;;5014661;28;20183;-89
2021/10/17 08:42:21;;;;;;;8.10;5.88;;;9.50;93.60;;;;;;5029617;28;20298;-92
2021/10/17 08:48:47;;;;;;;7.35;6.10;;;9.70;92.80;;;;;;5031289;28;20294;-91
2021/10/17 08:51:14;;;;;;;6.45;5.50;;;10.10;92.20;;;;;;5025946;28;20222;-87
2021/10/17 08:53:58;;;;;;;7.70;5.65;;;10.70;91.70;;;;;;5026689;28;20187;-90
2021/10/17 09:03:58;;;;;;;6.50;5.80;;;11.80;84.20;;;;;;5021343;28;20270;-90
2021/10/17 09:06:29;;;;;;;10.57;9.27;;;12.40;83.10;;;;;;4972160;28;20204;-90
2021/10/17 09:21:10;;;;;;;10.98;9.88;;;21.00;32.00;;;;;;5002897;28;20194;-86
2021/10/17 09:23:53;;;;;;;14.82;11.77;;;22.30;28.20;;;;;;5001676;28;20215;-87
2021/10/17 09:26:20;;;;;;;13.75;12.10;;;22.20;26.40;;;;;;4993572;28;20196;-87
2021/10/17 09:28:57;;;;;;;13.27;12.07;;;22.40;25.90;;;;;;4989157;28;20193;-89
2021/10/17 09:31:25;;;;;;;11.02;10.02;;;22.90;25.50;;;;;;5015603;28;20252;-89
2021/10/17 09:33:54;;;;;;;11.88;10.88;;;23.00;25.40;;;;;;4999346;28;20534;-88
2021/10/17 09:37:10;;;;;;;11.98;10.77;;;23.10;25.30;;;;;;5022088;28;20249;-88
2021/10/17 09:39:45;;;;;;;11.98;10.48;;;23.70;23.00;;;;;;5028440;28;20769;-88
2021/10/17 09:42:19;;;;;;;12.23;10.93;;;24.00;22.70;;;;;;5006661;28;20214;-88
2021/10/17 09:44:46;;;;;;;11.93;10.82;;;24.40;20.80;;;;;;4988810;28;20742;-88
2021/10/17 09:47:56;;;;;;;12.15;10.95;;;24.60;21.30;;;;;;5011602;28;20229;-87
2021/10/17 09:50:28;;;;;;;12.55;11.35;;;24.90;20.00;;;;;;5001962;28;20293;-90
2021/10/17 09:53:08;;;;;;;11.80;10.70;;;23.70;20.70;;;;;;5014778;28;20191;-88
2021/10/17 09:55:36;;;;;;;12.82;11.63;;;23.60;21.80;;;;;;5002363;28;20726;-87
2021/10/17 09:58:19;;;;;;;10.80;9.90;;;23.10;22.90;;;;;;5009229;28;20286;-89
2021/10/17 10:00:47;;;;;;;12.18;11.10;;;23.10;22.10;;;;;;5020655;28;20711;-87
2021/10/17 10:03:19;;;;;;;12.25;11.10;;;23.20;23.00;;;;;;5012463;28;20222;-87
2021/10/17 10:05:49;;;;;;;11.02;10.05;;;23.50;21.60;;;;;;5022703;28;20712;-87
2021/10/17 10:08:21;;;;;;;11.60;10.50;;;23.10;22.20;;;;;;5015491;28;20201;-88
2021/10/17 10:10:52;;;;;;;12.55;11.32;;;22.60;24.80;;;;;;5014031;28;20281;-89
2021/10/17 10:13:20;;;;;;;11.13;10.13;;;22.40;24.00;;;;;;5008344;28;20246;-87
2021/10/17 10:15:49;;;;;;;65.63;59.60;;;22.40;25.00;;;;;;5014359;28;20225;-87
2021/10/17 10:18:19;;;;;;;13.48;12.18;;;22.50;23.10;;;;;;4999316;28;20669;-89
2021/10/17 10:20:46;;;;;;;11.65;10.57;;;22.30;23.70;;;;;;4989708;28;20223;-88
2021/10/17 10:23:14;;;;;;;12.63;11.43;;;22.40;23.20;;;;;;5025930;28;20309;-88
2021/10/17 10:25:43;;;;;;;11.95;10.88;;;22.70;23.80;;;;;;5010791;28;20226;-88
2021/10/17 10:28:14;;;;;;;12.32;11.13;;;22.00;23.60;;;;;;4999193;28;20202;-91
2021/10/17 10:30:54;;;;;;;12.05;10.95;;;22.60;24.60;;;;;;5008706;28;20231;-89
2021/10/17 10:33:24;;;;;;;12.77;11.52;;;21.40;25.30;;;;;;5004075;28;20198;-89
2021/10/17 10:36:19;;;;;;;12.25;11.00;;;21.80;23.80;;;;;;5009621;28;20282;-89
2021/10/17 10:39:17;;;;;;;13.07;11.75;;;21.70;25.10;;;;;;5012503;28;20708;-88
2021/10/17 10:41:50;;;;;;;11.60;10.50;;;21.40;25.40;;;;;;5018810;28;20271;-88
2021/10/17 10:44:21;;;;;;;10.88;9.82;;;21.80;25.10;;;;;;5014630;28;20215;-88
2021/10/17 10:46:50;;;;;;;14.10;12.82;;;21.80;25.10;;;;;;5017868;28;20214;-89
2021/10/17 10:50:01;;;;;;;12.02;10.80;;;22.20;23.80;;;;;;5015669;28;20198;-90
2021/10/17 10:52:52;;;;;;;12.25;11.15;;;21.50;25.40;;;;;;5013875;28;20202;-89
2021/10/17 10:55:43;;;;;;;10.07;9.07;;;20.00;27.10;;;;;;4983503;28;20233;-88
2021/10/17 10:58:27;;;;;;;9.95;9.05;;;19.10;31.30;;;;;;5008047;28;20674;-89
2021/10/17 11:00:58;;;;;;;9.50;8.70;;;18.10;33.40;;;;;;5008107;28;20695;-90
2021/10/17 11:03:26;;;;;;;10.32;9.32;;;17.60;35.90;;;;;;5013118;28;20679;-90
2021/10/17 11:06:17;;;;;;;9.88;8.88;;;17.30;36.70;;;;;;5001650;28;20703;-89
2021/10/17 11:09:22;;;;;;;10.93;9.80;;;16.80;41.20;;;;;;5019999;28;20187;-89
2021/10/17 11:17:10;;;;;;;10.85;9.15;;;16.00;52.30;;;;;;5167187;23;20252;-91
2021/10/17 11:19:38;;;;;;;11.35;9.38;;;16.00;52.30;;;;;;5030568;28;20221;-91
2021/10/17 11:22:08;;;;;;;12.98;10.82;;;15.90;49.20;;;;;;5014593;28;20230;-91
2021/10/17 11:24:35;;;;;;;10.73;9.63;;;16.00;49.30;;;;;;5065123;28;20225;-90
2021/10/17 11:27:10;;;;;;;10.57;9.48;;;16.00;52.30;;;;;;5039174;28;20209;-90
2021/10/17 11:30:29;;;;;;;12.13;10.13;;;15.90;51.50;;;;;;5056550;28;20231;-90
2021/10/17 11:32:59;;;;;;;10.98;9.57;;;15.70;52.00;;;;;;5027140;28;20199;-92
2021/10/17 11:35:30;;;;;;;12.45;10.00;;;15.60;50.60;;;;;;5046919;28;20313;-88
2021/10/17 11:37:59;;;;;;;10.85;9.75;;;15.40;53.80;;;;;;5055129;28;20202;-90
2021/10/17 11:40:28;;;;;;;10.82;9.68;;;15.50;51.80;;;;;;5042700;28;20317;-90
2021/10/17 11:42:57;;;;;;;16.10;14.50;;;15.70;51.70;;;;;;5037833;28;20237;-89
2021/10/17 11:45:26;;;;;;;12.30;11.10;;;16.00;49.20;;;;;;5045718;28;20321;-90
2021/10/17 11:47:55;;;;;;;11.75;9.75;;;16.20;47.70;;;;;;5047440;28;20202;-89
2021/10/17 11:50:26;;;;;;;10.63;9.48;;;16.20;50.00;;;;;;5020196;28;20222;-90
2021/10/17 11:52:56;;;;;;;10.00;9.00;;;16.20;48.20;;;;;;5034982;28;20195;-89
2021/10/17 11:55:34;;;;;;;13.00;9.93;;;16.10;50.30;;;;;;5024529;28;20237;-92
2021/10/17 11:58:02;;;;;;;11.82;9.80;;;16.20;49.20;;;;;;5029318;28;20194;-90
2021/10/17 12:00:40;;;;;;;12.15;9.93;;;16.00;49.30;;;;;;5028417;28;20317;-90
2021/10/17 12:03:08;;;;;;;10.20;9.10;;;15.90;49.20;;;;;;5069691;28;20692;-92
2021/10/17 12:05:43;;;;;;;11.18;9.68;;;15.80;49.30;;;;;;5042623;28;20231;-92
2021/10/17 12:08:19;;;;;;;11.77;10.57;;;15.80;49.90;;;;;;5058175;28;20220;-92
2021/10/17 12:10:55;;;;;;;10.50;9.48;;;15.50;49.90;;;;;;5056785;28;20233;-92
2021/10/17 12:13:22;;;;;;;10.50;9.40;;;15.40;51.70;;;;;;5048179;28;20271;-92
2021/10/17 12:16:01;;;;;;;11.32;10.13;;;15.30;51.60;;;;;;5036091;28;20701;-92
2021/10/17 12:18:29;;;;;;;11.88;10.50;;;15.10;53.40;;;;;;5048616;28;20634;-91
2021/10/17 12:20:58;;;;;;;11.38;10.18;;;15.10;53.80;;;;;;5032518;28;20226;-92
2021/10/17 12:23:25;;;;;;;11.02;9.73;;;15.10;54.70;;;;;;5047894;28;20587;-92
2021/10/17 12:25:52;;;;;;;9.73;8.70;;;15.30;58.00;;;;;;5037319;28;20230;-91
2021/10/17 12:28:20;;;;;;;9.55;8.65;;;15.30;55.90;;;;;;5043124;28;20577;-92
2021/10/17 12:30:49;;;;;;;9.45;8.52;;;15.30;55.40;;;;;;5054895;28;20230;-93
2021/10/17 12:33:26;;;;;;;10.68;9.30;;;15.20;56.60;;;;;;5033040;28;20215;-91
2021/10/17 12:35:53;;;;;;;10.35;9.32;;;15.30;54.60;;;;;;5054847;28;20217;-92
2021/10/17 12:38:22;;;;;;;10.10;9.13;;;15.10;56.30;;;;;;5037018;28;20205;-92
2021/10/17 12:40:54;;;;;;;9.60;8.70;;;15.10;57.90;;;;;;5058689;28;20705;-92
2021/10/17 12:43:26;;;;;;;11.70;9.18;;;15.20;57.40;;;;;;5044133;28;20320;-93
2021/10/17 12:45:54;;;;;;;9.77;8.80;;;15.30;58.30;;;;;;5054848;28;20221;-92
2021/10/17 12:48:35;;;;;;;11.10;8.43;;;15.40;56.90;;;;;;5037584;28;20286;-92
2021/10/17 12:51:02;;;;;;;9.50;8.60;;;15.40;56.10;;;;;;5034357;28;20308;-93
2021/10/17 12:53:32;;;;;;;10.60;9.60;;;15.30;56.10;;;;;;5051528;28;20202;-91
2021/10/17 12:55:59;;;;;;;11.65;9.57;;;15.20;56.20;;;;;;5037233;28;20218;-91
2021/10/17 12:58:29;;;;;;;12.57;9.85;;;15.00;59.00;;;;;;5039324;28;20201;-92
2021/10/17 13:01:05;;;;;;;13.13;9.70;;;14.90;60.70;;;;;;5050539;28;20748;-93
2021/10/17 13:03:32;;;;;;;10.70;9.57;;;14.70;62.40;;;;;;5063003;28;20228;-91
2021/10/17 13:06:01;;;;;;;11.50;10.38;;;14.70;63.70;;;;;;5024103;28;20690;-91
2021/10/17 13:08:31;;;;;;;13.02;10.25;;;14.70;64.50;;;;;;5065044;28;20210;-91
2021/10/17 13:11:11;;;;;;;12.52;11.18;;;14.50;65.30;;;;;;5038285;28;21235;-92
2021/10/17 13:13:38;;;;;;;11.60;10.50;;;14.50;66.90;;;;;;5027196;28;20229;-91
2021/10/17 13:16:07;;;;;;;11.55;10.30;;;14.30;68.20;;;;;;5062334;28;20236;-92
2021/10/17 13:18:35;;;;;;;11.35;10.15;;;14.30;68.60;;;;;;5042170;28;20195;-91
2021/10/17 13:21:02;;;;;;;12.05;10.85;;;14.30;68.10;;;;;;5033613;28;20226;-91
2021/10/17 13:23:31;;;;;;;12.23;11.02;;;14.40;66.70;;;;;;5039351;28;20226;-91
2021/10/17 13:25:58;;;;;;;10.90;9.80;;;14.40;68.00;;;;;;5003450;28;20235;-91
2021/10/17 13:28:27;;;;;;;12.48;10.73;;;14.50;68.30;;;;;;5008685;28;20206;-92
2021/10/17 13:30:55;;;;;;;10.73;9.63;;;14.40;66.50;;;;;;5021317;28;20234;-91
2021/10/17 13:33:22;;;;;;;12.38;11.07;;;14.40;66.20;;;;;;5043678;28;20198;-91
2021/10/17 13:35:49;;;;;;;12.63;11.05;;;14.20;67.10;;;;;;5039254;28;20576;-90
2021/10/17 13:38:17;;;;;;;11.73;10.63;;;14.10;68.60;;;;;;5053230;28;20202;-92
2021/10/17 13:40:45;;;;;;;11.98;10.65;;;14.00;69.40;;;;;;5042769;28;20240;-91
2021/10/17 13:43:13;;;;;;;11.80;10.52;;;14.10;68.90;;;;;;5015705;28;20198;-92
2021/10/17 13:45:41;;;;;;;12.10;10.85;;;14.10;72.30;;;;;;5027498;28;20308;-90
2021/10/17 13:48:08;;;;;;;11.57;10.43;;;14.00;73.40;;;;;;5047836;28;20278;-91
2021/10/17 13:50:35;;;;;;;12.60;10.93;;;14.10;72.10;;;;;;5043904;28;20677;-91
2021/10/17 13:53:03;;;;;;;13.88;12.52;;;14.10;72.30;;;;;;5018547;28;20199;-91